Latest Coastal Weather Observations for South Channel Island

IDV60701

Issued at 5:11 am EST Monday 26 August 2019 (issued every 10 minutes, with the page automatically refreshed every 10 minutes)

About coastal observations | Map of coastal stations | Coastal observations for VIC | Marine services | Other Formats
Station Details ID: 086344 Name: SOUTH CHANNEL ISLAND Lat: -38.31 Lon: 144.80 Height: 9.0 m
Data from the previous 72 hours. | See also: Recent months at South Channel Island
Date/Time
EST
Wind Sea
Height
m
Swell Vis
km
Cloud Weather Temp
°C
Press
hPa
Rain since
9am
mm
Dir  Spd
kts
Gust
kts
Height
m
Period
s
Dir
26/05:00am W 13 15 - - - - - - - - - -
26/04:30am W 12 14 - - - - - - - - - -
26/04:00am W 9 13 - - - - - - - - - -
26/03:30am W 12 15 - - - - - - - - - -
26/03:00am W 15 16 - - - - - - - - - -
26/02:30am W 14 16 - - - - - - - - - -
26/02:00am W 10 12 - - - - - - - - - -
26/01:30am W 9 11 - - - - - - - - - -
26/01:00am SW 12 15 - - - - - - - - - -
26/12:30am W 13 15 - - - - - - - - - -
26/12:00am W 12 14 - - - - - - - - - -
 
Date/Time
EST
Wind Sea
Height
m
Swell Vis
km
Cloud Weather Temp
°C
Press
hPa
Rain since
9am
mm
Dir  Spd
kts
Gust
kts
Height
m
Period
s
Dir
25/11:30pm W 13 14 - - - - - - - - - -
25/11:00pm W 13 14 - - - - - - - - - -
25/10:30pm W 12 14 - - - - - - - - - -
25/10:00pm W 11 14 - - - - - - - - - -
25/09:30pm WSW 14 15 - - - - - - - - - -
25/09:00pm WSW 11 14 - - - - - - - - - -
25/08:30pm SW 9 10 - - - - - - - - - -
25/08:00pm SW 12 14 - - - - - - - - - -
25/07:30pm SW 14 16 - - - - - - - - - -
25/07:00pm SW 15 17 - - - - - - - - - -
25/06:30pm SW 17 19 - - - - - - - - - -
25/06:00pm SW 15 18 - - - - - - - - - -
25/05:30pm SW 14 18 - - - - - - - - - -
25/05:00pm SW 15 17 - - - - - - - - - -
25/04:30pm SW 15 19 - - - - - - - - - -
25/04:00pm SW 15 19 - - - - - - - - - -
25/03:30pm SW 14 18 - - - - - - - - - -
25/03:00pm SW 16 18 - - - - - - - - - -
25/02:30pm SSW 15 17 - - - - - - - - - -
25/02:00pm SW 12 16 - - - - - - - - - -
25/01:30pm SW 10 13 - - - - - - - - - -
25/01:00pm SSW 20 23 - - - - - - - - - -
25/12:55pm SW 19 23 - - - - - - - - - -
25/12:30pm WSW 12 16 - - - - - - - - - -
25/12:00pm SSW 7 9 - - - - - - - - - -
25/11:30am WSW 17 22 - - - - - - - - - -
25/11:19am WSW 17 22 - - - - - - - - - -
25/11:00am WSW 10 12 - - - - - - - - - -
25/10:30am W 11 15 - - - - - - - - - -
25/10:00am WSW 11 14 - - - - - - - - - -
25/09:30am WNW 13 17 - - - - - - - - - -
25/09:00am W 19 22 - - - - - - - - - -
25/08:30am W 15 17 - - - - - - - - - -
25/08:00am W 18 22 - - - - - - - - - -
25/07:30am W 16 18 - - - - - - - - - -
25/07:00am W 17 19 - - - - - - - - - -
25/06:30am W 18 20 - - - - - - - - - -
25/06:00am WNW 16 20 - - - - - - - - - -
25/05:30am W 19 22 - - - - - - - - - -
25/05:00am W 19 20 - - - - - - - - - -
25/04:30am W 19 22 - - - - - - - - - -
25/04:00am W 20 22 - - - - - - - - - -
25/03:30am W 19 22 - - - - - - - - - -
25/03:00am WSW 14 16 - - - - - - - - - -
25/02:30am WSW 17 22 - - - - - - - - - -
25/02:00am W 21 27 - - - - - - - - - -
25/01:30am W 19 21 - - - - - - - - - -
25/01:00am W 18 21 - - - - - - - - - -
25/12:30am W 17 19 - - - - - - - - - -
25/12:00am WNW 18 20 - - - - - - - - - -
 
Date/Time
EST
Wind Sea
Height
m
Swell Vis
km
Cloud Weather Temp
°C
Press
hPa
Rain since
9am
mm
Dir  Spd
kts
Gust
kts
Height
m
Period
s
Dir
24/11:30pm WNW 19 21 - - - - - - - - - -
24/11:00pm WNW 20 21 - - - - - - - - - -
24/10:30pm W 20 22 - - - - - - - - - -
24/10:00pm W 19 21 - - - - - - - - - -
24/09:30pm W 20 24 - - - - - - - - - -
24/09:00pm WSW 23 30 - - - - - - - - - -
24/08:30pm WSW 23 29 - - - - - - - - - -
24/08:00pm SW 27 32 - - - - - - - - - -
24/07:36pm WSW 21 31 - - - - - - - - - -
24/07:30pm W 22 27 - - - - - - - - - -
24/07:00pm W 27 30 - - - - - - - - - -
24/06:30pm W 27 30 - - - - - - - - - -
24/06:00pm W 31 35 - - - - - - - - - -
24/05:42pm W 35 45 - - - - - - - - - -
24/05:34pm WNW 24 42 - - - - - - - - - -
24/05:33pm NW 22 39 - - - - - - - - - -
24/05:30pm NW 21 24 - - - - - - - - - -
24/05:00pm NNW 20 23 - - - - - - - - - -
24/04:30pm NNW 18 23 - - - - - - - - - -
24/04:00pm N 22 26 - - - - - - - - - -
24/03:30pm N 25 29 - - - - - - - - - -
24/03:00pm N 26 29 - - - - - - - - - -
24/02:30pm N 26 29 - - - - - - - - - -
24/02:00pm NNW 28 32 - - - - - - - - - -
24/01:30pm N 20 24 - - - - - - - - - -
24/01:00pm N 27 29 - - - - - - - - - -
24/12:30pm N 27 31 - - - - - - - - - -
24/12:00pm N 22 26 - - - - - - - - - -
24/11:30am N 25 28 - - - - - - - - - -
24/11:00am N 28 32 - - - - - - - - - -
24/10:30am N 31 36 - - - - - - - - - -
24/10:00am N 32 38 - - - - - - - - - -
24/09:30am N 33 38 - - - - - - - - - -
24/09:00am N 34 39 - - - - - - - - - -
24/08:30am N 32 38 - - - - - - - - - -
24/08:00am N 33 39 - - - - - - - - - -
24/07:30am N 31 37 - - - - - - - - - -
24/07:00am N 31 39 - - - - - - - - - -
24/06:30am N 31 39 - - - - - - - - - -
24/06:00am N 29 35 - - - - - - - - - -
24/05:30am N 29 33 - - - - - - - - - -
24/05:00am N 29 35 - - - - - - - - - -
24/04:30am N 29 34 - - - - - - - - - -
24/04:00am N 30 34 - - - - - - - - - -
24/03:30am N 29 33 - - - - - - - - - -
24/03:00am N 27 31 - - - - - - - - - -
24/02:30am N 27 32 - - - - - - - - - -
24/02:00am N 27 32 - - - - - - - - - -
24/01:30am N 25 28 - - - - - - - - - -
24/01:00am N 23 28 - - - - - - - - - -
24/12:30am N 23 27 - - - - - - - - - -
24/12:00am N 22 27 - - - - - - - - - -
 
Date/Time
EST
Wind Sea
Height
m
Swell Vis
km
Cloud Weather Temp
°C
Press
hPa
Rain since
9am
mm
Dir  Spd
kts
Gust
kts
Height
m
Period
s
Dir
23/11:30pm N 24 28 - - - - - - - - - -
23/11:00pm N 25 28 - - - - - - - - - -
23/10:30pm N 21 25 - - - - - - - - - -
23/10:00pm N 20 24 - - - - - - - - - -
23/09:30pm N 19 22 - - - - - - - - - -
23/09:00pm N 19 22 - - - - - - - - - -
23/08:30pm NNW 20 22 - - - - - - - - - -
23/08:00pm NNW 17 22 - - - - - - - - - -
23/07:30pm NNW 18 20 - - - - - - - - - -
23/07:00pm NNW 14 17 - - - - - - - - - -
23/06:30pm NNW 11 13 - - - - - - - - - -
23/06:00pm N 12 14 - - - - - - - - - -
23/05:30pm N 14 15 - - - - - - - - - -
23/05:00pm N 11 12 - - - - - - - - - -
23/04:30pm NE 9 10 - - - - - - - - - -
23/04:00pm NE 7 8 - - - - - - - - - -
23/03:30pm NNE 6 7 - - - - - - - - - -
23/03:00pm N 5 6 - - - - - - - - - -
23/02:30pm N 7 8 - - - - - - - - - -
23/02:00pm N 9 10 - - - - - - - - - -
23/01:30pm NNW 13 15 - - - - - - - - - -
23/01:00pm N 15 16 - - - - - - - - - -
23/12:30pm N 14 18 - - - - - - - - - -
23/12:00pm NNW 14 17 - - - - - - - - - -
23/11:30am NW 13 16 - - - - - - - - - -
23/11:00am NW 14 16 - - - - - - - - - -
23/10:30am NW 12 14 - - - - - - - - - -
23/10:00am WNW 15 17 - - - - - - - - - -
23/09:30am WNW 13 16 - - - - - - - - - -
23/09:00am NW 11 14 - - - - - - - - - -
23/08:30am WNW 13 14 - - - - - - - - - -
23/08:00am WNW 14 16 - - - - - - - - - -
23/07:30am WNW 13 14 - - - - - - - - - -
23/07:00am WNW 12 13 - - - - - - - - - -
23/06:30am WNW 12 13 - - - - - - - - - -
23/06:00am WNW 13 14 - - - - - - - - - -
23/05:30am WNW 11 13 - - - - - - - - - -

Other formats

Comma delimited format used in spreadsheet applications
http://www.bom.gov.au/fwo/IDV60701/IDV60701.94853.axf

JavaScript Object Notation format (JSON) in row-major order
http://www.bom.gov.au/fwo/IDV60701/IDV60701.94853.json

Data quality

Most of these data are generated automatically and are frequently updated. Quality checks on data are not normally performed. It is possible for incorrect values to appear. Refer to information at About Latest Weather Observations and please check the disclaimer before using these data.